Time;durP1;ratioP1;P1;durP2;ratioP2;P2;SDS_P1;SDS_P2;PMS_P1;PMS_P2;Temp;Humidity;BMP_temperature;BMP_pressure;BME280_temperature;BME280_humidity;BME280_pressure;Samples;Min_cycle;Max_cycle;Signal;HPM_P1;HPM_P2
2020/12/14 00:02:17;;;;;;;27.83;3.65;;;9.40;99.90;;;;;;4904627;29;20024;-95
2020/12/14 00:04:43;;;;;;;22.77;3.35;;;9.40;99.90;;;;;;4904774;29;20039;-94
2020/12/14 00:07:09;;;;;;;37.53;4.65;;;9.30;99.90;;;;;;4905006;29;20044;-95
2020/12/14 00:09:36;;;;;;;23.55;3.40;;;9.30;99.90;;;;;;4902967;29;20040;-94
2020/12/14 00:12:11;;;;;;;42.28;4.82;;;9.30;99.90;;;;;;4907255;29;20020;-95
2020/12/14 00:14:36;;;;;;;31.88;4.28;;;9.30;99.90;;;;;;4905481;29;20565;-96
2020/12/14 00:17:02;;;;;;;38.10;3.88;;;9.30;99.90;;;;;;4908426;29;20024;-96
2020/12/14 00:19:28;;;;;;;38.35;5.22;;;9.30;99.90;;;;;;4904550;29;20032;-95
2020/12/14 00:21:54;;;;;;;26.48;3.72;;;9.30;99.90;;;;;;4907607;29;20028;-93
2020/12/14 00:24:21;;;;;;;25.35;4.63;;;9.30;99.90;;;;;;4906411;29;20043;-94
2020/12/14 00:26:48;;;;;;;29.70;3.80;;;9.30;99.90;;;;;;4910056;29;20028;-95
2020/12/14 00:29:13;;;;;;;36.88;6.50;;;9.30;99.90;;;;;;4911910;29;20100;-95
2020/12/14 00:31:39;;;;;;;29.42;4.35;;;9.30;99.90;;;;;;4910369;29;20058;-94
2020/12/14 00:34:05;;;;;;;30.70;3.50;;;9.30;99.90;;;;;;4907109;29;20057;-94
2020/12/14 00:36:30;;;;;;;32.35;4.07;;;9.30;99.90;;;;;;4912786;29;20039;-95
2020/12/14 00:38:56;;;;;;;19.90;3.17;;;9.30;99.90;;;;;;4911346;29;20028;-95
2020/12/14 00:41:22;;;;;;;27.67;4.70;;;9.30;99.90;;;;;;4910770;29;20040;-94
2020/12/14 00:43:48;;;;;;;27.27;4.10;;;9.40;99.90;;;;;;4910839;29;20024;-94
2020/12/14 00:46:15;;;;;;;36.17;4.65;;;9.40;99.90;;;;;;4912924;29;20504;-96
2020/12/14 00:48:42;;;;;;;34.65;4.82;;;9.40;99.90;;;;;;4916270;29;20036;-95
2020/12/14 00:51:08;;;;;;;35.88;5.07;;;9.40;99.90;;;;;;4913732;29;20035;-95
2020/12/14 00:53:34;;;;;;;29.08;4.53;;;9.40;99.90;;;;;;4911953;29;20028;-94
2020/12/14 00:56:04;;;;;;;40.03;6.78;;;9.40;99.90;;;;;;4912832;29;20032;-95
2020/12/14 00:58:30;;;;;;;27.20;3.55;;;9.40;99.90;;;;;;4913828;29;20075;-95
2020/12/14 01:00:56;;;;;;;25.08;3.83;;;9.40;99.90;;;;;;4918821;29;20055;-95
2020/12/14 01:03:23;;;;;;;25.92;4.40;;;9.40;99.90;;;;;;4915527;29;20036;-96
2020/12/14 01:05:51;;;;;;;29.75;4.03;;;9.40;99.90;;;;;;4910494;29;20116;-95
2020/12/14 01:08:20;;;;;;;30.88;4.10;;;9.40;99.90;;;;;;4909633;29;20040;-94
2020/12/14 01:10:46;;;;;;;28.98;3.67;;;9.40;99.90;;;;;;4908088;29;20071;-96
2020/12/14 01:13:11;;;;;;;40.13;6.50;;;9.40;99.90;;;;;;4910178;29;20040;-93
2020/12/14 01:15:40;;;;;;;29.48;3.55;;;9.40;99.90;;;;;;4907141;29;20406;-95
2020/12/14 01:18:06;;;;;;;39.90;5.63;;;9.40;99.90;;;;;;4908411;29;20024;-94
2020/12/14 01:20:31;;;;;;;33.80;4.15;;;9.40;99.90;;;;;;4926873;29;20028;-94
2020/12/14 01:22:57;;;;;;;27.15;3.80;;;9.30;99.90;;;;;;4909027;29;20024;-95
2020/12/14 01:25:23;;;;;;;28.90;4.03;;;9.30;99.90;;;;;;4910018;29;20036;-95
2020/12/14 01:27:49;;;;;;;24.85;3.60;;;9.30;99.90;;;;;;4909863;29;20090;-95
2020/12/14 01:30:14;;;;;;;25.15;2.95;;;9.30;99.90;;;;;;4907535;29;20466;-95
2020/12/14 01:32:40;;;;;;;26.67;3.70;;;9.30;99.90;;;;;;4905910;29;20036;-94
2020/12/14 01:35:05;;;;;;;25.35;2.65;;;9.30;99.90;;;;;;4907423;29;20173;-95
2020/12/14 01:37:31;;;;;;;22.45;2.83;;;9.30;99.90;;;;;;4907266;29;20043;-95
2020/12/14 01:39:57;;;;;;;16.23;2.45;;;9.20;99.90;;;;;;4906277;29;20035;-95
2020/12/14 01:42:22;;;;;;;35.75;5.53;;;9.20;99.90;;;;;;4909167;29;20083;-95
2020/12/14 01:44:51;;;;;;;21.10;3.53;;;9.20;99.90;;;;;;4911710;29;20036;-95
2020/12/14 01:47:30;;;;;;;20.17;3.60;;;9.20;99.90;;;;;;4908535;29;20051;-95
2020/12/14 01:49:57;;;;;;;41.53;6.88;;;9.20;99.90;;;;;;4911871;29;20055;-95
2020/12/14 01:52:24;;;;;;;36.10;5.43;;;9.20;99.90;;;;;;4917542;29;20020;-95
2020/12/14 01:54:52;;;;;;;35.78;4.95;;;9.20;99.90;;;;;;4925065;29;20020;-94
2020/12/14 01:57:19;;;;;;;21.02;3.53;;;9.20;99.90;;;;;;4925217;29;20032;-95
2020/12/14 01:59:44;;;;;;;30.17;4.15;;;9.20;99.90;;;;;;4926507;29;20040;-93
2020/12/14 02:02:11;;;;;;;31.02;3.50;;;9.20;99.90;;;;;;4927167;29;20084;-94
2020/12/14 02:04:37;;;;;;;24.83;4.63;;;9.20;99.90;;;;;;4927082;29;20035;-94
2020/12/14 02:07:03;;;;;;;24.70;4.30;;;9.20;99.90;;;;;;4913476;29;20044;-96
2020/12/14 02:09:28;;;;;;;34.75;4.05;;;9.20;99.90;;;;;;4909853;29;20039;-95
2020/12/14 02:11:54;;;;;;;42.20;4.30;;;9.20;99.90;;;;;;4907687;29;20024;-94
2020/12/14 02:14:20;;;;;;;28.65;4.25;;;9.20;99.90;;;;;;4909177;29;20047;-95
2020/12/14 02:16:45;;;;;;;29.83;4.03;;;9.20;99.90;;;;;;4912940;29;20059;-95
2020/12/14 02:19:11;;;;;;;35.35;4.43;;;9.20;99.90;;;;;;4913646;29;20036;-95
2020/12/14 02:21:37;;;;;;;37.53;4.90;;;9.10;99.90;;;;;;4906421;29;20020;-94
2020/12/14 02:24:16;;;;;;;29.15;3.63;;;9.20;99.90;;;;;;4906758;29;20032;-95
2020/12/14 02:26:48;;;;;;;32.88;4.07;;;9.20;99.90;;;;;;4908692;29;20109;-93
2020/12/14 02:29:16;;;;;;;23.23;3.47;;;9.20;99.90;;;;;;4908102;29;20091;-94
2020/12/14 02:31:42;;;;;;;36.83;4.90;;;9.20;99.90;;;;;;4915490;29;20032;-94
2020/12/14 02:34:08;;;;;;;36.92;4.00;;;9.20;99.90;;;;;;4932454;29;20032;-94
2020/12/14 02:36:34;;;;;;;27.58;3.53;;;9.20;99.90;;;;;;4909427;29;20024;-95
2020/12/14 02:38:59;;;;;;;34.92;5.50;;;9.10;99.90;;;;;;4905891;29;20032;-94
2020/12/14 02:41:25;;;;;;;31.58;4.18;;;9.20;99.90;;;;;;4906347;29;20192;-95
2020/12/14 02:43:51;;;;;;;34.88;3.58;;;9.10;99.90;;;;;;4905526;29;20020;-94
2020/12/14 02:46:16;;;;;;;26.60;4.18;;;9.10;99.90;;;;;;4905529;29;20036;-94
2020/12/14 02:48:42;;;;;;;30.00;4.32;;;9.10;99.90;;;;;;4903689;29;20261;-94
2020/12/14 02:51:08;;;;;;;40.75;4.45;;;9.10;99.90;;;;;;4905636;29;20404;-95
2020/12/14 02:53:33;;;;;;;27.13;3.83;;;9.10;99.90;;;;;;4905707;29;20466;-95
2020/12/14 02:55:59;;;;;;;23.13;3.05;;;9.10;99.90;;;;;;4905616;29;20062;-94
2020/12/14 02:58:24;;;;;;;23.42;3.20;;;9.10;99.90;;;;;;4908677;29;20061;-94
2020/12/14 03:00:50;;;;;;;31.67;5.00;;;9.10;99.90;;;;;;4909453;29;20043;-95
2020/12/14 03:03:16;;;;;;;41.75;5.32;;;9.10;99.90;;;;;;4911760;29;20032;-94
2020/12/14 03:05:41;;;;;;;26.67;4.50;;;9.10;99.90;;;;;;4910247;29;20063;-95
2020/12/14 03:08:07;;;;;;;43.42;5.18;;;9.10;99.90;;;;;;4909417;29;20024;-94
2020/12/14 03:10:33;;;;;;;36.42;3.97;;;9.00;99.90;;;;;;4906124;29;20036;-95
2020/12/14 03:12:58;;;;;;;36.35;4.70;;;9.10;99.90;;;;;;4907464;29;20032;-94
2020/12/14 03:15:24;;;;;;;32.67;4.60;;;9.00;99.90;;;;;;4906066;29;20103;-95
2020/12/14 03:17:50;;;;;;;39.03;4.40;;;9.10;99.90;;;;;;4907071;29;20032;-95
2020/12/14 03:20:15;;;;;;;34.17;4.00;;;9.10;99.90;;;;;;4907978;29;20035;-95
2020/12/14 03:22:41;;;;;;;35.67;3.58;;;9.00;99.90;;;;;;4908402;29;20120;-94
2020/12/14 03:25:07;;;;;;;32.58;5.32;;;9.00;99.90;;;;;;4905984;29;20402;-94
2020/12/14 03:27:32;;;;;;;41.15;5.22;;;9.00;99.90;;;;;;4902776;29;20032;-93
2020/12/14 03:29:58;;;;;;;36.40;4.32;;;9.00;99.90;;;;;;4906323;29;20125;-95
2020/12/14 03:32:24;;;;;;;20.70;2.88;;;9.00;99.90;;;;;;4904507;29;20383;-94
2020/12/14 03:34:49;;;;;;;35.25;4.05;;;9.00;99.90;;;;;;4905160;29;20063;-95
2020/12/14 03:37:15;;;;;;;34.17;4.85;;;9.00;99.90;;;;;;4905427;29;20059;-94
2020/12/14 03:39:40;;;;;;;26.90;3.42;;;9.00;99.90;;;;;;4902252;29;20083;-94
2020/12/14 03:42:06;;;;;;;26.83;3.70;;;9.00;99.90;;;;;;4901613;29;20020;-93
2020/12/14 03:44:32;;;;;;;36.58;3.38;;;8.90;99.90;;;;;;4900999;29;20092;-94
2020/12/14 03:46:57;;;;;;;30.80;3.30;;;8.90;99.90;;;;;;4901398;29;20028;-94
2020/12/14 03:49:23;;;;;;;20.50;3.13;;;8.90;99.90;;;;;;4901536;29;20051;-95
2020/12/14 03:51:48;;;;;;;23.65;2.83;;;8.90;99.90;;;;;;4901731;29;20059;-94
2020/12/14 03:54:14;;;;;;;29.70;3.00;;;8.90;99.90;;;;;;4902091;29;20482;-94
2020/12/14 03:56:40;;;;;;;16.80;2.50;;;8.90;99.90;;;;;;4902107;29;20036;-93
2020/12/14 03:59:05;;;;;;;19.83;3.10;;;8.80;99.90;;;;;;4903043;29;20024;-95
2020/12/14 04:01:31;;;;;;;21.55;3.65;;;8.90;99.90;;;;;;4909321;29;20024;-94
2020/12/14 04:03:57;;;;;;;22.17;2.72;;;8.80;99.90;;;;;;4914196;29;20056;-93
2020/12/14 04:06:25;;;;;;;12.45;2.05;;;8.90;99.90;;;;;;4903480;29;20043;-94
2020/12/14 04:08:51;;;;;;;19.60;2.10;;;8.90;99.90;;;;;;4904394;29;20039;-94
2020/12/14 04:11:17;;;;;;;19.20;2.38;;;8.90;99.90;;;;;;4920070;29;20024;-94
2020/12/14 04:13:44;;;;;;;16.60;2.45;;;8.90;99.90;;;;;;4903918;29;20107;-94
2020/12/14 04:16:10;;;;;;;15.18;2.92;;;8.90;99.90;;;;;;4904393;29;20601;-96
2020/12/14 04:18:38;;;;;;;19.20;2.70;;;8.90;99.90;;;;;;4907478;29;20081;-95
2020/12/14 04:21:05;;;;;;;9.35;2.08;;;8.90;99.90;;;;;;4912285;29;20032;-96
2020/12/14 04:23:31;;;;;;;12.98;1.75;;;9.00;99.90;;;;;;4905002;29;20028;-94
2020/12/14 04:25:57;;;;;;;8.00;1.48;;;9.00;99.90;;;;;;4910523;29;20079;-95
2020/12/14 04:28:23;;;;;;;7.10;1.55;;;9.00;99.90;;;;;;4904632;29;20040;-93
2020/12/14 04:30:48;;;;;;;11.57;1.55;;;9.00;99.90;;;;;;4907292;29;20100;-95
2020/12/14 04:33:17;;;;;;;10.73;1.63;;;9.00;99.90;;;;;;4904836;29;20040;-94
2020/12/14 04:35:43;;;;;;;6.60;1.25;;;9.00;99.90;;;;;;4905605;29;20029;-94
2020/12/14 04:38:09;;;;;;;7.65;1.27;;;9.00;99.90;;;;;;4902608;29;20035;-95
2020/12/14 04:40:34;;;;;;;11.98;1.77;;;8.90;99.90;;;;;;4901700;29;20032;-95
2020/12/14 04:43:00;;;;;;;7.85;1.05;;;8.90;99.90;;;;;;4902103;29;20056;-95
2020/12/14 04:45:27;;;;;;;8.00;1.15;;;8.90;99.90;;;;;;4901287;29;20489;-94
2020/12/14 04:47:55;;;;;;;6.32;1.20;;;8.90;99.90;;;;;;4902083;29;20039;-95
2020/12/14 04:50:23;;;;;;;9.15;1.27;;;8.80;99.90;;;;;;4901336;29;20029;-95
2020/12/14 04:52:49;;;;;;;9.27;1.30;;;8.80;99.90;;;;;;4901673;29;20028;-95
2020/12/14 04:55:22;;;;;;;10.98;1.60;;;8.80;99.90;;;;;;4902011;29;20062;-96
2020/12/14 04:57:49;;;;;;;9.63;1.23;;;8.70;99.90;;;;;;4902061;29;20039;-94
2020/12/14 05:00:16;;;;;;;9.63;1.20;;;8.70;99.90;;;;;;4900015;29;20032;-94
2020/12/14 05:02:42;;;;;;;7.95;1.20;;;8.60;99.90;;;;;;4901195;29;20561;-95
2020/12/14 05:05:12;;;;;;;7.18;1.88;;;8.60;99.90;;;;;;4899353;29;20052;-94
2020/12/14 05:07:44;;;;;;;16.05;1.65;;;8.60;99.90;;;;;;4900043;29;20028;-95
2020/12/14 05:10:11;;;;;;;9.77;1.42;;;8.50;99.90;;;;;;4900869;29;20039;-94
2020/12/14 05:12:41;;;;;;;9.77;1.23;;;8.50;99.90;;;;;;4901513;29;20028;-95
2020/12/14 05:15:16;;;;;;;10.85;1.50;;;8.50;99.90;;;;;;4901185;29;20119;-95
2020/12/14 05:17:42;;;;;;;8.68;1.90;;;8.50;99.90;;;;;;4900624;29;20028;-95
2020/12/14 05:20:19;;;;;;;9.52;1.73;;;8.50;99.90;;;;;;4901075;29;20028;-95
2020/12/14 05:22:59;;;;;;;11.07;1.38;;;8.50;99.90;;;;;;4900425;29;20032;-95
2020/12/14 05:25:26;;;;;;;12.95;1.90;;;8.40;99.90;;;;;;4901020;29;20107;-95
2020/12/14 05:28:01;;;;;;;14.77;1.65;;;8.40;99.90;;;;;;4902433;29;20068;-94
2020/12/14 05:30:40;;;;;;;19.40;2.20;;;8.40;99.90;;;;;;4908672;29;20028;-94
2020/12/14 05:33:07;;;;;;;14.45;2.72;;;8.40;99.90;;;;;;4918438;29;20101;-95
2020/12/14 05:35:38;;;;;;;12.65;1.88;;;8.40;99.90;;;;;;4906122;29;20027;-95
2020/12/14 05:38:13;;;;;;;12.13;1.83;;;8.30;99.90;;;;;;4906164;29;20070;-94
2020/12/14 05:40:40;;;;;;;16.70;2.10;;;8.30;99.90;;;;;;4906197;29;20059;-94
2020/12/14 05:43:07;;;;;;;12.07;1.92;;;8.40;99.90;;;;;;4906570;29;20133;-94
2020/12/14 05:45:33;;;;;;;14.27;2.10;;;8.40;99.90;;;;;;4920341;29;20059;-96
2020/12/14 05:47:59;;;;;;;12.07;1.63;;;8.40;99.90;;;;;;4923028;29;20096;-95
2020/12/14 05:50:30;;;;;;;8.18;1.40;;;8.40;99.90;;;;;;4943763;29;20012;-93
2020/12/14 05:53:05;;;;;;;11.23;3.25;;;8.40;99.90;;;;;;4927369;29;20020;-96
2020/12/14 05:55:34;;;;;;;12.48;1.42;;;8.40;99.90;;;;;;4926664;29;20032;-96
2020/12/14 05:58:02;;;;;;;16.92;2.17;;;8.40;99.90;;;;;;4925524;29;20032;-96
2020/12/14 06:00:29;;;;;;;12.15;1.42;;;8.40;99.90;;;;;;4911686;29;20048;-93
2020/12/14 06:02:55;;;;;;;12.60;1.75;;;8.40;99.90;;;;;;4911196;29;20034;-94
2020/12/14 06:05:23;;;;;;;15.27;3.80;;;8.50;99.90;;;;;;4923670;29;20040;-95
2020/12/14 06:07:59;;;;;;;16.00;2.10;;;8.50;99.90;;;;;;4925470;29;20043;-93
2020/12/14 06:10:27;;;;;;;13.80;1.83;;;8.50;99.90;;;;;;4923559;29;20043;-94
2020/12/14 06:13:05;;;;;;;12.30;1.73;;;8.50;99.90;;;;;;4906875;29;20040;-96
2020/12/14 06:15:32;;;;;;;14.70;2.15;;;8.50;99.90;;;;;;4925438;29;20012;-96
2020/12/14 06:18:03;;;;;;;19.40;2.40;;;8.40;99.90;;;;;;4921599;29;20060;-96
2020/12/14 06:20:29;;;;;;;17.65;3.00;;;8.50;99.90;;;;;;4922949;29;20036;-95
2020/12/14 06:23:03;;;;;;;20.10;3.42;;;8.50;99.90;;;;;;4923484;29;20040;-94
2020/12/14 06:25:31;;;;;;;17.27;2.08;;;8.40;99.90;;;;;;4918436;29;20100;-96
2020/12/14 06:28:17;;;;;;;10.57;1.67;;;8.40;99.90;;;;;;4917693;29;20110;-95
2020/12/14 06:30:54;;;;;;;16.95;3.42;;;8.40;99.90;;;;;;4919941;29;20091;-95
2020/12/14 06:33:40;;;;;;;10.98;1.83;;;8.40;99.90;;;;;;4917761;29;20044;-94
2020/12/14 06:36:20;;;;;;;19.83;2.72;;;8.40;99.90;;;;;;4915807;29;20032;-95
2020/12/14 06:38:47;;;;;;;17.20;2.22;;;8.40;99.90;;;;;;4914128;29;20100;-95
2020/12/14 06:41:18;;;;;;;17.45;3.47;;;8.50;99.90;;;;;;4934733;29;20067;-95
2020/12/14 06:43:48;;;;;;;16.90;2.80;;;8.50;99.90;;;;;;4911981;29;20069;-96
2020/12/14 06:46:14;;;;;;;22.50;3.15;;;8.50;99.90;;;;;;4908240;29;20035;-96
2020/12/14 06:48:43;;;;;;;15.05;2.08;;;8.50;99.90;;;;;;4912149;29;20047;-95
2020/12/14 06:51:17;;;;;;;15.90;2.00;;;8.50;99.90;;;;;;4916574;29;20027;-93
2020/12/14 06:53:52;;;;;;;19.77;2.72;;;8.50;99.90;;;;;;4901776;29;20127;-94
2020/12/14 06:56:40;;;;;;;23.23;2.83;;;8.50;99.90;;;;;;4916564;29;20035;-95
2020/12/14 06:59:28;;;;;;;16.73;2.80;;;8.50;99.90;;;;;;4916414;29;20052;-95
2020/12/14 07:02:05;;;;;;;25.90;3.78;;;8.50;99.90;;;;;;4924206;29;20096;-94
2020/12/14 07:04:36;;;;;;;20.65;3.13;;;8.50;99.90;;;;;;4903161;29;20013;-94
2020/12/14 07:07:11;;;;;;;26.70;3.40;;;8.50;99.90;;;;;;4915879;29;20051;-93
2020/12/14 07:09:43;;;;;;;19.02;2.88;;;8.50;99.90;;;;;;4921248;29;20128;-96
2020/12/14 07:12:09;;;;;;;20.48;2.65;;;8.50;99.90;;;;;;4920997;29;20004;-95
2020/12/14 07:14:55;;;;;;;14.32;3.72;;;8.50;99.90;;;;;;4920020;29;20120;-95
2020/12/14 07:17:22;;;;;;;20.55;3.70;;;8.40;99.90;;;;;;4912484;29;20091;-96
2020/12/14 07:19:50;;;;;;;7.57;1.92;;;8.40;99.90;;;;;;4920277;29;20099;-93
2020/12/14 07:22:20;;;;;;;18.35;2.35;;;8.40;99.90;;;;;;4904926;29;20047;-96
2020/12/14 07:25:05;;;;;;;18.95;2.58;;;8.40;99.90;;;;;;4929904;29;20072;-95
2020/12/14 07:27:33;;;;;;;9.90;2.15;;;8.40;99.90;;;;;;4922967;29;20057;-95
2020/12/14 07:30:08;;;;;;;17.75;1.88;;;8.30;99.90;;;;;;4920366;29;20032;-96
2020/12/14 07:32:35;;;;;;;21.08;4.57;;;8.30;99.90;;;;;;4918567;29;20044;-96
2020/12/14 07:35:06;;;;;;;16.98;2.10;;;8.30;99.90;;;;;;4921982;29;20080;-95
2020/12/14 07:37:32;;;;;;;14.38;2.40;;;8.30;99.90;;;;;;4913497;29;20032;-96
2020/12/14 07:39:58;;;;;;;17.02;2.38;;;8.30;99.90;;;;;;4908058;29;20035;-95
2020/12/14 07:42:31;;;;;;;11.35;2.15;;;8.30;99.90;;;;;;4908005;29;20024;-96
2020/12/14 07:45:14;;;;;;;14.38;2.25;;;8.30;99.90;;;;;;4911228;29;20063;-96
2020/12/14 07:47:41;;;;;;;15.02;2.28;;;8.30;99.90;;;;;;4910683;29;20036;-95
2020/12/14 07:50:10;;;;;;;17.02;3.58;;;8.30;99.90;;;;;;4907825;29;20040;-96
2020/12/14 07:52:38;;;;;;;15.98;2.42;;;8.30;99.90;;;;;;4907987;29;20039;-96
2020/12/14 07:55:10;;;;;;;16.27;3.25;;;8.30;99.90;;;;;;4905309;29;20478;-96
2020/12/14 07:57:40;;;;;;;14.05;1.98;;;8.30;99.90;;;;;;4912219;29;20089;-96
2020/12/14 08:00:11;;;;;;;19.27;3.38;;;8.30;99.90;;;;;;4917194;29;20036;-95
2020/12/14 08:02:40;;;;;;;;;;;8.30;99.90;;;;;;4915118;29;20028;-96
2020/12/14 08:05:09;;;;;;;14.32;2.55;;;8.30;99.90;;;;;;4905444;29;19937;-95
2020/12/14 08:07:43;;;;;;;7.63;1.60;;;8.30;99.90;;;;;;4906896;29;20036;-96
2020/12/14 08:10:10;;;;;;;12.73;2.50;;;8.30;99.90;;;;;;4902831;29;20473;-96
2020/12/14 08:12:41;;;;;;;17.83;3.55;;;8.30;99.90;;;;;;4907670;29;20063;-96
2020/12/14 08:15:09;;;;;;;;;;;8.30;99.90;;;;;;4908119;29;20036;-95
2020/12/14 08:17:38;;;;;;;21.42;3.72;;;8.30;99.90;;;;;;4908479;29;19921;-95
2020/12/14 08:20:12;;;;;;;21.95;3.65;;;8.30;99.90;;;;;;4904318;29;20028;-95
2020/12/14 08:22:38;;;;;;;23.52;3.30;;;8.30;99.90;;;;;;4926322;29;20039;-96
2020/12/14 08:25:04;;;;;;;11.55;2.05;;;8.40;99.90;;;;;;4902444;29;20076;-95
2020/12/14 08:27:45;;;;;;;21.23;2.72;;;8.40;99.90;;;;;;4907456;29;20036;-95
2020/12/14 08:30:14;;;;;;;15.10;1.83;;;8.30;99.90;;;;;;4912256;29;20032;-96
2020/12/14 08:32:41;;;;;;;11.85;2.05;;;8.30;99.90;;;;;;4912688;29;20036;-95
2020/12/14 08:35:23;;;;;;;17.05;2.13;;;8.30;99.90;;;;;;4906005;29;20024;-96
2020/12/14 08:37:51;;;;;;;14.30;1.40;;;8.30;99.90;;;;;;4903220;29;20036;-96
2020/12/14 08:40:17;;;;;;;16.08;2.88;;;8.30;99.90;;;;;;4907609;29;20032;-96
2020/12/14 08:42:43;;;;;;;14.85;2.67;;;8.20;99.90;;;;;;4907577;29;20036;-95
2020/12/14 08:45:12;;;;;;;13.20;2.10;;;8.20;99.90;;;;;;4904953;29;20035;-94
2020/12/14 08:50:31;;;;;;;16.00;2.25;;;8.20;99.90;;;;;;4899068;29;20032;-96
2020/12/14 08:53:03;;;;;;;17.38;1.98;;;8.20;99.90;;;;;;4896208;29;20032;-96
2020/12/14 08:55:39;;;;;;;15.13;2.00;;;8.20;99.90;;;;;;4906554;29;20466;-96
2020/12/14 08:58:05;;;;;;;19.15;2.33;;;8.20;99.90;;;;;;4901723;29;20123;-95
2020/12/14 09:00:31;;;;;;;19.70;4.22;;;8.20;99.90;;;;;;4897127;29;20016;-95
2020/12/14 09:03:02;;;;;;;15.27;2.67;;;8.20;99.90;;;;;;4920812;29;20492;-96
2020/12/14 09:05:33;;;;;;;20.52;2.40;;;8.20;99.90;;;;;;4927773;29;20047;-95
2020/12/14 09:08:15;;;;;;;20.02;3.10;;;8.20;99.90;;;;;;4914671;29;20501;-96
2020/12/14 09:10:54;;;;;;;18.20;2.78;;;8.20;99.90;;;;;;4912713;29;20056;-96
2020/12/14 09:13:20;;;;;;;20.13;2.97;;;8.20;99.90;;;;;;4910746;29;20500;-95
2020/12/14 09:15:53;;;;;;;14.88;2.78;;;8.10;99.90;;;;;;4908554;29;20024;-95
2020/12/14 09:18:20;;;;;;;26.90;3.55;;;8.20;99.90;;;;;;4905863;29;20055;-96
2020/12/14 09:20:46;;;;;;;19.20;2.85;;;8.20;99.90;;;;;;4908331;29;20020;-94
2020/12/14 09:23:19;;;;;;;21.30;3.65;;;8.20;99.90;;;;;;4911292;29;20100;-95
2020/12/14 09:25:46;;;;;;;19.55;4.05;;;8.20;99.90;;;;;;4905855;29;20052;-95
2020/12/14 09:28:12;;;;;;;21.85;3.38;;;8.20;99.90;;;;;;4906205;29;20071;-95
2020/12/14 09:30:38;;;;;;;18.60;2.97;;;8.20;99.90;;;;;;4906277;29;20028;-96
2020/12/14 09:33:03;;;;;;;15.40;3.10;;;8.20;99.90;;;;;;4909059;29;20039;-95
2020/12/14 09:35:29;;;;;;;17.05;2.95;;;8.20;99.90;;;;;;4909542;29;20032;-95
2020/12/14 09:37:55;;;;;;;23.23;4.70;;;8.20;99.90;;;;;;4907206;29;20068;-95
2020/12/14 09:40:21;;;;;;;17.58;3.35;;;8.20;99.90;;;;;;4925509;29;20104;-95
2020/12/14 09:42:48;;;;;;;21.15;3.13;;;8.30;99.90;;;;;;4905221;29;20036;-95
2020/12/14 09:45:14;;;;;;;12.77;2.88;;;8.20;99.90;;;;;;4906470;29;20032;-95
2020/12/14 09:47:40;;;;;;;16.90;2.83;;;8.20;99.90;;;;;;4907343;29;20044;-96
2020/12/14 09:50:06;;;;;;;12.30;3.15;;;8.30;99.90;;;;;;4912370;29;20024;-96
2020/12/14 09:52:32;;;;;;;13.68;2.72;;;8.30;99.90;;;;;;4921718;29;20461;-96
2020/12/14 09:55:01;;;;;;;22.13;4.80;;;8.30;99.90;;;;;;4924924;29;20035;-95
2020/12/14 09:57:31;;;;;;;12.85;3.35;;;8.30;99.90;;;;;;4937215;29;20076;-95
2020/12/14 10:00:04;;;;;;;14.52;2.75;;;8.30;99.90;;;;;;4930884;29;20024;-95
2020/12/14 10:02:30;;;;;;;27.30;4.30;;;8.30;99.90;;;;;;4908606;29;20028;-95
2020/12/14 10:04:55;;;;;;;16.92;3.15;;;8.30;99.90;;;;;;4908894;29;20040;-95
2020/12/14 10:07:21;;;;;;;23.52;3.92;;;8.20;99.90;;;;;;4903788;29;20024;-95
2020/12/14 10:09:47;;;;;;;20.20;4.50;;;8.20;99.90;;;;;;4902955;29;20063;-95
2020/12/14 10:12:12;;;;;;;20.38;3.90;;;8.20;99.90;;;;;;4903732;29;20032;-96
2020/12/14 10:14:38;;;;;;;19.13;4.22;;;8.20;99.90;;;;;;4903966;29;20497;-95
2020/12/14 10:17:04;;;;;;;25.45;3.42;;;8.20;99.90;;;;;;4904200;29;20373;-95
2020/12/14 10:19:31;;;;;;;14.75;4.07;;;8.20;99.90;;;;;;4911715;29;20056;-94
2020/12/14 10:21:57;;;;;;;22.02;3.78;;;8.20;99.90;;;;;;4902211;29;20564;-94
2020/12/14 10:24:23;;;;;;;12.93;3.00;;;8.20;99.90;;;;;;4907306;29;20031;-94
2020/12/14 10:26:49;;;;;;;20.77;4.15;;;8.30;99.90;;;;;;4912831;29;20056;-94
2020/12/14 10:29:17;;;;;;;17.40;3.90;;;8.30;99.90;;;;;;4904377;29;20036;-95
2020/12/14 10:31:48;;;;;;;17.25;2.95;;;8.40;99.90;;;;;;4903006;29;20032;-96
2020/12/14 10:34:14;;;;;;;23.70;3.97;;;8.40;99.90;;;;;;4903220;29;20032;-96
2020/12/14 10:36:45;;;;;;;24.25;3.40;;;8.50;99.90;;;;;;4902468;29;20032;-95
2020/12/14 10:39:10;;;;;;;20.90;3.60;;;8.60;99.90;;;;;;4904164;29;20032;-94
2020/12/14 10:41:36;;;;;;;22.55;5.00;;;8.60;99.90;;;;;;4905851;29;20039;-96
2020/12/14 10:44:11;;;;;;;18.50;3.83;;;8.70;99.90;;;;;;4909551;29;20038;-96
2020/12/14 10:46:41;;;;;;;22.45;3.38;;;8.90;99.90;;;;;;4948587;29;20039;-95
2020/12/14 10:49:17;;;;;;;;;;;;;;;;;;;;;
2020/12/14 10:51:47;;;;;;;18.67;3.13;;;9.10;99.90;;;;;;4932861;29;20076;-94
2020/12/14 10:54:15;;;;;;;16.88;2.85;;;9.20;99.90;;;;;;4906924;29;20032;-95
2020/12/14 10:56:41;;;;;;;14.40;2.53;;;9.30;99.90;;;;;;4905845;29;20028;-96
2020/12/14 10:59:07;;;;;;;14.45;2.88;;;9.50;99.90;;;;;;4903790;29;20557;-95
2020/12/14 11:01:54;;;;;;;11.48;2.67;;;9.60;99.90;;;;;;4902458;29;20052;-95
2020/12/14 11:04:21;;;;;;;23.38;4.18;;;9.50;99.90;;;;;;4904151;29;20123;-94
2020/12/14 11:06:58;;;;;;;15.05;3.08;;;9.50;99.90;;;;;;4903487;29;20055;-95
2020/12/14 11:09:29;;;;;;;12.63;3.08;;;9.40;99.90;;;;;;4906906;29;20047;-94
2020/12/14 11:11:55;;;;;;;16.23;3.13;;;9.30;99.90;;;;;;4905953;29;20032;-94
2020/12/14 11:14:23;;;;;;;19.33;2.80;;;9.30;99.90;;;;;;4922685;29;20529;-95
2020/12/14 11:16:49;;;;;;;16.83;2.53;;;9.20;99.90;;;;;;4902677;29;20028;-95
2020/12/14 11:19:30;;;;;;;24.25;3.33;;;9.20;99.90;;;;;;4904243;29;20067;-95
2020/12/14 11:21:57;;;;;;;19.88;2.22;;;9.20;99.90;;;;;;4903234;29;20070;-96
2020/12/14 11:24:34;;;;;;;17.88;2.10;;;9.20;99.90;;;;;;4906075;29;20055;-95
2020/12/14 11:27:03;;;;;;;23.30;4.13;;;9.20;99.90;;;;;;4909935;29;20027;-95
2020/12/14 11:29:35;;;;;;;11.52;1.92;;;9.30;99.90;;;;;;4914908;29;20024;-95
2020/12/14 11:32:00;;;;;;;13.15;1.77;;;9.30;99.90;;;;;;4904544;29;20039;-93
2020/12/14 11:34:26;;;;;;;12.27;1.90;;;9.30;99.90;;;;;;4901654;29;20036;-94
2020/12/14 11:37:12;;;;;;;12.20;2.13;;;9.40;99.90;;;;;;4902363;29;20032;-95
2020/12/14 11:39:38;;;;;;;11.45;2.13;;;9.30;99.90;;;;;;4898680;29;20058;-95
2020/12/14 11:42:04;;;;;;;15.48;2.53;;;9.30;99.90;;;;;;4901579;29;20568;-94
2020/12/14 11:44:30;;;;;;;10.30;2.03;;;9.20;99.90;;;;;;4905463;29;20020;-94
2020/12/14 11:46:58;;;;;;;8.40;1.83;;;9.20;99.90;;;;;;4902616;29;20508;-95
2020/12/14 11:49:33;;;;;;;20.42;3.30;;;9.10;99.90;;;;;;4903441;29;20123;-95
2020/12/14 11:52:02;;;;;;;14.70;1.98;;;9.10;99.90;;;;;;4905887;29;20107;-96
2020/12/14 11:54:53;;;;;;;15.90;2.53;;;9.10;99.90;;;;;;4904613;29;20036;-95
2020/12/14 11:57:18;;;;;;;;;;;9.10;99.90;;;;;;4904195;29;20032;-94
2020/12/14 11:59:44;;;;;;;16.98;1.83;;;9.20;99.90;;;;;;4906181;29;19918;-94
2020/12/14 12:02:15;;;;;;;14.30;1.77;;;9.20;99.90;;;;;;4907951;29;20025;-93
2020/12/14 12:04:43;;;;;;;;;;;9.30;99.90;;;;;;4907079;29;20040;-94
2020/12/14 12:07:09;;;;;;;12.82;2.33;;;9.40;99.90;;;;;;4906528;29;19919;-95
2020/12/14 12:12:29;;;;;;;16.20;2.47;;;9.40;99.90;;;;;;4921381;29;20060;-96
2020/12/14 12:14:57;;;;;;;16.17;2.90;;;9.50;99.90;;;;;;4903381;29;20039;-96
2020/12/14 12:17:26;;;;;;;11.25;1.77;;;9.60;99.90;;;;;;4902831;29;20032;-95
2020/12/14 12:19:53;;;;;;;16.83;2.17;;;9.60;99.90;;;;;;4901892;29;20036;-96
2020/12/14 12:22:19;;;;;;;11.13;2.03;;;9.60;99.90;;;;;;4900275;29;20032;-95
2020/12/14 12:24:45;;;;;;;10.68;2.33;;;9.90;99.90;;;;;;4899147;29;20497;-95
2020/12/14 12:27:11;;;;;;;9.02;1.33;;;10.30;99.90;;;;;;4900513;29;20460;-95
2020/12/14 12:29:37;;;;;;;14.98;2.13;;;10.90;99.90;;;;;;4899638;29;20131;-94
2020/12/14 12:32:02;;;;;;;11.10;2.42;;;11.50;99.90;;;;;;4898364;29;20120;-95
2020/12/14 12:34:28;;;;;;;14.25;1.55;;;12.00;99.90;;;;;;4899023;29;20435;-91
2020/12/14 12:36:56;;;;;;;9.35;1.52;;;12.10;99.90;;;;;;4898934;29;20056;-95
2020/12/14 12:39:22;;;;;;;5.60;1.23;;;12.10;99.90;;;;;;4902880;29;20095;-95
2020/12/14 12:41:49;;;;;;;6.18;1.13;;;11.80;99.90;;;;;;4902554;29;20545;-93
2020/12/14 12:44:16;;;;;;;16.52;6.82;;;11.40;99.80;;;;;;4903360;29;20059;-96
2020/12/14 12:46:42;;;;;;;8.35;1.33;;;11.10;99.90;;;;;;4903029;29;20024;-95
2020/12/14 12:49:09;;;;;;;8.80;1.15;;;10.80;99.90;;;;;;4904508;29;20039;-95
2020/12/14 12:51:35;;;;;;;10.27;1.52;;;10.60;99.90;;;;;;4907678;29;20421;-95
2020/12/14 12:54:04;;;;;;;5.38;1.13;;;10.50;99.90;;;;;;4911479;29;20466;-95
2020/12/14 12:56:30;;;;;;;6.57;1.00;;;10.30;99.90;;;;;;4913525;29;20020;-96
2020/12/14 12:58:55;;;;;;;8.73;1.38;;;10.10;99.90;;;;;;4911798;29;20047;-95
2020/12/14 13:01:21;;;;;;;6.68;2.08;;;10.00;99.90;;;;;;4910682;29;20028;-94
2020/12/14 13:03:47;;;;;;;8.77;1.50;;;9.90;99.90;;;;;;4910184;29;20028;-95